Home   Weather   Finland   Kemi   Past weeks
Flag for Finland

Past Weather in Kemi, Finland — Yesterday and Last 2 Weeks

Currently: 48 °F. Sprinkles. Low clouds. (Weather station: Kemi Airport, Finland). See more current weather

Past Weather in Kemi — Graph

°F

Kemi Temperature Yesterday

Maximum temperature yesterday: 52 °F (at 7:50 am)
Minimum temperature yesterday: 46 °F (at 12:20 am)
Average temperature yesterday: 50 °F

High & Low Weather Summary for the Past Weeks

 TemperatureHumidityPressure
High55 °F (Sep 23, 4:20 pm)100% (Sep 23, 5:20 am)30.07 "Hg (Sep 23, 5:20 am)
Low30 °F (Oct 1, 12:50 am)47% (Sep 29, 3:50 pm)28.97 "Hg (Oct 6, 8:20 am)
Average45 °F87%29.79 "Hg
* Reported Sep 22 9:20 pm — Oct 7 9:20 pm, Kemi. Weather by CustomWeather, © 2022

Note: Actual official high and low records may vary slightly from our data, if they occured in-between our weather recording intervals... More about our weather records

Kemi Weather History for the Previous 24 Hours

Scroll right to see more
 ConditionsComfort  
Time TempWeatherWind HumidityBarometerVisibility
9:20 pm
Fri, Oct 7
48 °FRain. Low clouds.18 mph94%29.30 "Hg5 mi
8:50 pm48 °FRain showers. Low clouds.17 mph94%29.33 "Hg4 mi
7:50 pm48 °FOvercast.14 mph87%29.39 "HgN/A
7:20 pm48 °FPassing clouds.13 mph87%29.39 "HgN/A
6:50 pm48 °FClear.13 mph82%29.39 "Hg10 mi
6:20 pm46 °FSunny.12 mph87%29.42 "Hg10 mi
5:50 pm48 °FSunny.13 mph87%29.42 "Hg10 mi
5:20 pm48 °FSunny.15 mph82%29.42 "Hg10 mi
4:20 pm50 °FSunny.17 mph76%29.45 "Hg10 mi
3:20 pm52 °FSunny.18 mph67%29.42 "Hg10 mi
2:50 pm50 °FPassing clouds.16 mph71%29.42 "HgN/A
2:20 pm50 °FPassing clouds.17 mph76%29.45 "HgN/A
1:20 pm50 °FSunny.14 mph71%29.42 "Hg10 mi
11:20 am50 °FPassing clouds.12 mph71%29.39 "HgN/A
10:20 am48 °FPassing clouds.10 mph76%29.36 "HgN/A
9:50 am48 °FSunny.12 mph76%29.36 "Hg10 mi
9:20 am48 °FPassing clouds.10 mph76%29.33 "HgN/A
8:50 am48 °FSunny.10 mph76%29.33 "Hg10 mi
8:20 am46 °FPassing clouds.10 mph82%29.33 "HgN/A
7:50 am46 °FSunny.9 mph82%29.30 "Hg10 mi
7:20 am46 °FClear.8 mph82%29.30 "Hg10 mi
6:50 am48 °FPassing clouds.10 mph76%29.30 "HgN/A
6:20 am48 °FClear.12 mph76%29.30 "Hg10 mi
5:20 am48 °FClear.12 mph76%29.30 "Hg10 mi
4:20 am46 °FClear.12 mph82%29.27 "Hg10 mi
2:20 am48 °FPassing clouds.10 mph76%29.24 "HgN/A
1:20 am48 °FPassing clouds.12 mph76%29.24 "HgN/A
12:20 am48 °FClear.15 mph76%29.24 "Hg10 mi
11:50 pm
Thu, Oct 6
48 °FPassing clouds.15 mph76%29.21 "HgN/A
Weather by CustomWeather, © 2022

See weather overview